createdAt,value
2023-03-03T00:00:02.000Z,1.2000000476837158
2023-03-03T00:00:17.000Z,1.2000000476837158
2023-03-03T00:00:32.000Z,1.2999999523162842
2023-03-03T00:00:47.000Z,1.2999999523162842
2023-03-03T00:01:02.000Z,1.399999976158142
2023-03-03T00:01:17.000Z,1.399999976158142
2023-03-03T00:01:32.000Z,1.399999976158142
2023-03-03T00:01:47.000Z,1.399999976158142
2023-03-03T00:02:02.000Z,1.2999999523162842
2023-03-03T00:02:17.000Z,1.2000000476837158
2023-03-03T00:02:32.000Z,1.2999999523162842
2023-03-03T00:02:47.000Z,1.399999976158142
2023-03-03T00:03:02.000Z,1.399999976158142
2023-03-03T00:03:17.000Z,1.399999976158142
2023-03-03T00:03:32.000Z,1.2000000476837158
2023-03-03T00:03:47.000Z,1.2000000476837158
2023-03-03T00:04:02.000Z,1.2000000476837158
2023-03-03T00:04:17.000Z,1.100000023841858
2023-03-03T00:04:32.000Z,1.100000023841858
2023-03-03T00:04:47.000Z,1.2000000476837158
2023-03-03T00:05:02.000Z,1.100000023841858
2023-03-03T00:05:17.000Z,1.2000000476837158
2023-03-03T00:05:32.000Z,1.2000000476837158
2023-03-03T00:05:47.000Z,1.2000000476837158
2023-03-03T00:06:02.000Z,1.2999999523162842
2023-03-03T00:06:17.000Z,1.2999999523162842
2023-03-03T00:06:32.000Z,1.399999976158142
2023-03-03T00:06:47.000Z,1.399999976158142
2023-03-03T00:07:02.000Z,1.399999976158142
2023-03-03T00:07:17.000Z,1.399999976158142
2023-03-03T00:07:32.000Z,1.399999976158142
2023-03-03T00:07:46.000Z,1.399999976158142
2023-03-03T00:08:02.000Z,1.5
2023-03-03T00:08:17.000Z,1.5
2023-03-03T00:08:32.000Z,1.5
2023-03-03T00:08:47.000Z,1.5
2023-03-03T00:09:02.000Z,1.399999976158142
2023-03-03T00:09:17.000Z,1.399999976158142
2023-03-03T00:09:32.000Z,1.399999976158142
2023-03-03T00:09:47.000Z,1.2999999523162842
2023-03-03T00:10:02.000Z,1.2999999523162842
2023-03-03T00:10:17.000Z,1.399999976158142
2023-03-03T00:10:32.000Z,1.399999976158142
2023-03-03T00:10:47.000Z,1.399999976158142
2023-03-03T00:11:02.000Z,1.399999976158142
2023-03-03T00:11:17.000Z,1.5
2023-03-03T00:11:32.000Z,1.399999976158142
2023-03-03T00:11:47.000Z,1.399999976158142
2023-03-03T00:12:02.000Z,1.5
2023-03-03T00:12:17.000Z,1.5
2023-03-03T00:12:32.000Z,1.5
2023-03-03T00:12:47.000Z,1.399999976158142
2023-03-03T00:13:02.000Z,1.5
2023-03-03T00:13:17.000Z,1.5
2023-03-03T00:13:32.000Z,1.5
2023-03-03T00:13:47.000Z,1.5
2023-03-03T00:14:02.000Z,1.5
2023-03-03T00:14:17.000Z,1.5
2023-03-03T00:14:32.000Z,1.399999976158142
2023-03-03T00:14:47.000Z,1.399999976158142
2023-03-03T00:15:02.000Z,1.399999976158142
2023-03-03T00:15:17.000Z,1.399999976158142
2023-03-03T00:15:32.000Z,1.399999976158142
2023-03-03T00:15:47.000Z,1.399999976158142
2023-03-03T00:16:02.000Z,1.5
2023-03-03T00:16:17.000Z,1.399999976158142
2023-03-03T00:16:32.000Z,1.399999976158142
2023-03-03T00:16:47.000Z,1.399999976158142
2023-03-03T00:17:02.000Z,1.2999999523162842
2023-03-03T00:17:17.000Z,1.2000000476837158
2023-03-03T00:17:32.000Z,1.2000000476837158
2023-03-03T00:17:47.000Z,1.2000000476837158
2023-03-03T00:18:02.000Z,1.2999999523162842
2023-03-03T00:18:17.000Z,1.2999999523162842
2023-03-03T00:18:32.000Z,1.2999999523162842
2023-03-03T00:18:47.000Z,1.399999976158142
2023-03-03T00:19:02.000Z,1.399999976158142
2023-03-03T00:19:17.000Z,1.399999976158142
2023-03-03T00:19:32.000Z,1.399999976158142
2023-03-03T00:19:47.000Z,1.399999976158142
2023-03-03T00:20:02.000Z,1.399999976158142
2023-03-03T00:20:17.000Z,1.399999976158142
2023-03-03T00:20:32.000Z,1.399999976158142
2023-03-03T00:20:47.000Z,1.399999976158142
2023-03-03T00:21:02.000Z,1.399999976158142
2023-03-03T00:21:17.000Z,1.399999976158142
2023-03-03T00:21:32.000Z,1.399999976158142
2023-03-03T00:21:47.000Z,1.399999976158142
2023-03-03T00:22:02.000Z,1.399999976158142
2023-03-03T00:22:17.000Z,1.399999976158142
2023-03-03T00:22:31.000Z,1.399999976158142
2023-03-03T00:22:47.000Z,1.399999976158142
2023-03-03T00:23:02.000Z,1.399999976158142
2023-03-03T00:23:17.000Z,1.399999976158142
2023-03-03T00:23:32.000Z,1.399999976158142
2023-03-03T00:23:47.000Z,1.399999976158142
2023-03-03T00:24:02.000Z,1.399999976158142
2023-03-03T00:24:17.000Z,1.399999976158142
2023-03-03T00:24:32.000Z,1.399999976158142
2023-03-03T00:24:47.000Z,1.399999976158142
2023-03-03T00:25:02.000Z,1.399999976158142
2023-03-03T00:25:17.000Z,1.399999976158142
2023-03-03T00:25:32.000Z,1.399999976158142
2023-03-03T00:25:47.000Z,1.399999976158142
2023-03-03T00:26:02.000Z,1.399999976158142
2023-03-03T00:26:17.000Z,1.399999976158142
2023-03-03T00:26:32.000Z,1.399999976158142
2023-03-03T00:26:47.000Z,1.399999976158142
2023-03-03T00:27:02.000Z,1.399999976158142
2023-03-03T00:27:17.000Z,1.399999976158142
2023-03-03T00:27:32.000Z,1.399999976158142
2023-03-03T00:27:47.000Z,1.399999976158142
2023-03-03T00:28:02.000Z,1.399999976158142
2023-03-03T00:28:17.000Z,1.399999976158142
2023-03-03T00:28:32.000Z,1.399999976158142
2023-03-03T00:28:47.000Z,1.399999976158142
2023-03-03T00:29:02.000Z,1.399999976158142
2023-03-03T00:29:17.000Z,1.399999976158142
2023-03-03T00:29:32.000Z,1.399999976158142
2023-03-03T00:29:47.000Z,1.399999976158142
2023-03-03T00:30:02.000Z,1.399999976158142
2023-03-03T00:30:17.000Z,1.399999976158142
2023-03-03T00:30:32.000Z,1.399999976158142
2023-03-03T00:30:47.000Z,1.399999976158142
2023-03-03T00:31:02.000Z,1.399999976158142
2023-03-03T00:31:17.000Z,1.399999976158142
2023-03-03T00:31:32.000Z,1.399999976158142
2023-03-03T00:31:47.000Z,1.399999976158142
2023-03-03T00:32:02.000Z,1.399999976158142
2023-03-03T00:32:17.000Z,1.399999976158142
2023-03-03T00:32:32.000Z,1.399999976158142
2023-03-03T00:32:47.000Z,1.399999976158142
2023-03-03T00:33:02.000Z,1.399999976158142
2023-03-03T00:33:17.000Z,1.399999976158142
2023-03-03T00:33:32.000Z,1.399999976158142
2023-03-03T00:33:47.000Z,1.399999976158142
2023-03-03T00:34:02.000Z,1.399999976158142
2023-03-03T00:34:17.000Z,1.399999976158142
2023-03-03T00:34:32.000Z,1.399999976158142
2023-03-03T00:34:47.000Z,1.399999976158142
2023-03-03T00:35:02.000Z,1.399999976158142
2023-03-03T00:35:17.000Z,1.399999976158142
2023-03-03T00:35:32.000Z,1.399999976158142
2023-03-03T00:35:47.000Z,1.399999976158142
2023-03-03T00:36:02.000Z,1.399999976158142
2023-03-03T00:36:17.000Z,1.399999976158142
2023-03-03T00:36:32.000Z,1.399999976158142
2023-03-03T00:36:47.000Z,1.399999976158142
2023-03-03T00:37:02.000Z,1.399999976158142
2023-03-03T00:37:17.000Z,1.399999976158142
2023-03-03T00:37:32.000Z,1.399999976158142
2023-03-03T00:37:47.000Z,1.399999976158142
2023-03-03T00:38:02.000Z,1.399999976158142
2023-03-03T00:38:17.000Z,1.399999976158142
2023-03-03T00:38:32.000Z,1.399999976158142
2023-03-03T00:38:47.000Z,1.399999976158142
2023-03-03T00:39:02.000Z,1.399999976158142
2023-03-03T00:39:17.000Z,1.399999976158142
2023-03-03T00:39:32.000Z,1.399999976158142
2023-03-03T00:39:47.000Z,1.399999976158142
2023-03-03T00:40:02.000Z,1.399999976158142
2023-03-03T00:40:17.000Z,1.399999976158142
2023-03-03T00:40:32.000Z,1.399999976158142
2023-03-03T00:40:47.000Z,1.2999999523162842
2023-03-03T00:41:02.000Z,1.2999999523162842
2023-03-03T00:41:17.000Z,1.2999999523162842
2023-03-03T00:41:32.000Z,1.2999999523162842
2023-03-03T00:41:47.000Z,1.2999999523162842
2023-03-03T00:42:02.000Z,1.2999999523162842
2023-03-03T00:42:17.000Z,1.2999999523162842
2023-03-03T00:42:32.000Z,1.2999999523162842
2023-03-03T00:42:47.000Z,1.2999999523162842
2023-03-03T00:43:02.000Z,1.2999999523162842
2023-03-03T00:43:17.000Z,1.2999999523162842
2023-03-03T00:43:32.000Z,1.2999999523162842
2023-03-03T00:43:47.000Z,1.2999999523162842
2023-03-03T00:44:02.000Z,1.2999999523162842
2023-03-03T00:44:17.000Z,1.2999999523162842
2023-03-03T00:44:32.000Z,1.2999999523162842
2023-03-03T00:44:47.000Z,1.2999999523162842
2023-03-03T00:45:02.000Z,1.2999999523162842
2023-03-03T00:45:17.000Z,1.2000000476837158
2023-03-03T00:45:32.000Z,1.100000023841858
2023-03-03T00:45:47.000Z,1.100000023841858
2023-03-03T00:46:02.000Z,1.2000000476837158
2023-03-03T00:46:17.000Z,1.2000000476837158
2023-03-03T00:46:32.000Z,1.2000000476837158
2023-03-03T00:46:47.000Z,1.2000000476837158
2023-03-03T00:47:02.000Z,1.2000000476837158
2023-03-03T00:47:17.000Z,1.2000000476837158
2023-03-03T00:47:32.000Z,1.2000000476837158
2023-03-03T00:47:47.000Z,1.100000023841858
2023-03-03T00:48:02.000Z,1.2000000476837158
2023-03-03T00:48:17.000Z,1.2000000476837158
2023-03-03T00:48:32.000Z,1.2000000476837158
2023-03-03T00:48:47.000Z,1.2000000476837158
2023-03-03T00:49:02.000Z,1.2000000476837158
2023-03-03T00:49:17.000Z,1.2000000476837158
2023-03-03T00:49:32.000Z,1.2000000476837158
2023-03-03T00:49:47.000Z,1.2000000476837158
2023-03-03T00:50:02.000Z,1.2000000476837158
2023-03-03T00:50:17.000Z,1.2000000476837158
2023-03-03T00:50:32.000Z,1.2000000476837158
2023-03-03T00:50:47.000Z,1.2000000476837158
2023-03-03T00:51:02.000Z,1.2000000476837158
2023-03-03T00:51:17.000Z,1.2000000476837158
2023-03-03T00:51:32.000Z,1.2000000476837158
2023-03-03T00:51:47.000Z,1.2000000476837158
2023-03-03T00:52:02.000Z,1.100000023841858
2023-03-03T00:52:17.000Z,1.0
2023-03-03T00:52:32.000Z,1.100000023841858
2023-03-03T00:52:47.000Z,1.100000023841858
2023-03-03T00:53:02.000Z,1.100000023841858
2023-03-03T00:53:17.000Z,1.100000023841858
2023-03-03T00:53:32.000Z,1.100000023841858
2023-03-03T00:53:47.000Z,1.100000023841858
2023-03-03T00:54:02.000Z,1.100000023841858
2023-03-03T00:54:17.000Z,1.100000023841858
2023-03-03T00:54:32.000Z,1.100000023841858
2023-03-03T00:54:47.000Z,1.100000023841858
2023-03-03T00:55:02.000Z,1.100000023841858
2023-03-03T00:55:17.000Z,1.100000023841858
2023-03-03T00:55:32.000Z,1.100000023841858
2023-03-03T00:55:47.000Z,1.100000023841858
2023-03-03T00:56:02.000Z,1.100000023841858
2023-03-03T00:56:17.000Z,1.100000023841858
2023-03-03T00:56:32.000Z,1.100000023841858
2023-03-03T00:56:47.000Z,1.100000023841858
2023-03-03T00:57:02.000Z,1.100000023841858
2023-03-03T00:57:17.000Z,1.100000023841858
2023-03-03T00:57:32.000Z,1.100000023841858
2023-03-03T00:57:47.000Z,1.100000023841858
2023-03-03T00:58:02.000Z,1.100000023841858
2023-03-03T00:58:17.000Z,1.100000023841858
2023-03-03T00:58:32.000Z,1.0
2023-03-03T00:58:47.000Z,1.0
2023-03-03T00:59:02.000Z,1.100000023841858
2023-03-03T00:59:17.000Z,1.100000023841858
2023-03-03T00:59:32.000Z,1.100000023841858
2023-03-03T00:59:47.000Z,1.100000023841858
2023-03-03T01:00:01.000Z,1.100000023841858
2023-03-03T01:00:17.000Z,1.0
2023-03-03T01:00:32.000Z,1.0
2023-03-03T01:00:47.000Z,1.0
2023-03-03T01:01:02.000Z,1.0
2023-03-03T01:01:17.000Z,1.0
2023-03-03T01:01:32.000Z,1.0
2023-03-03T01:01:47.000Z,1.0
2023-03-03T01:02:02.000Z,1.0
2023-03-03T01:02:17.000Z,1.0
2023-03-03T01:02:32.000Z,1.0
2023-03-03T01:02:47.000Z,1.0
2023-03-03T01:03:02.000Z,1.0
2023-03-03T01:03:17.000Z,1.0
2023-03-03T01:03:32.000Z,1.0
2023-03-03T01:03:47.000Z,1.0
2023-03-03T01:04:02.000Z,1.0
2023-03-03T01:04:17.000Z,1.0
2023-03-03T01:04:32.000Z,1.0
2023-03-03T01:04:47.000Z,1.0
2023-03-03T01:05:02.000Z,1.0
2023-03-03T01:05:17.000Z,1.0
2023-03-03T01:05:32.000Z,1.0
2023-03-03T01:05:47.000Z,1.0
2023-03-03T01:06:02.000Z,1.0
2023-03-03T01:06:17.000Z,1.0
2023-03-03T01:06:32.000Z,1.0
2023-03-03T01:06:47.000Z,1.0
2023-03-03T01:07:02.000Z,1.0
2023-03-03T01:07:17.000Z,1.0
2023-03-03T01:07:31.000Z,1.0
2023-03-03T01:07:47.000Z,1.0
2023-03-03T01:08:02.000Z,1.0
2023-03-03T01:08:17.000Z,1.0
2023-03-03T01:08:32.000Z,1.0
2023-03-03T01:08:47.000Z,1.0
2023-03-03T01:09:02.000Z,1.0
2023-03-03T01:09:17.000Z,1.0
2023-03-03T01:09:32.000Z,1.0
2023-03-03T01:09:47.000Z,1.0
2023-03-03T01:10:02.000Z,1.0
2023-03-03T01:10:17.000Z,1.0
2023-03-03T01:10:32.000Z,1.0
2023-03-03T01:10:47.000Z,0.8999999761581421
2023-03-03T01:11:02.000Z,0.8999999761581421
2023-03-03T01:11:17.000Z,0.8999999761581421
2023-03-03T01:11:32.000Z,0.8999999761581421
2023-03-03T01:11:47.000Z,1.0
2023-03-03T01:12:02.000Z,0.8999999761581421
2023-03-03T01:12:17.000Z,0.8999999761581421
2023-03-03T01:12:32.000Z,1.0
2023-03-03T01:12:47.000Z,1.0
2023-03-03T01:13:02.000Z,0.8999999761581421
2023-03-03T01:13:17.000Z,0.8999999761581421
2023-03-03T01:13:32.000Z,1.0
2023-03-03T01:13:47.000Z,0.8999999761581421
2023-03-03T01:14:02.000Z,0.8999999761581421
2023-03-03T01:14:17.000Z,0.8999999761581421
2023-03-03T01:14:32.000Z,0.8999999761581421
2023-03-03T01:14:47.000Z,1.0
2023-03-03T01:15:02.000Z,0.8999999761581421
2023-03-03T01:15:17.000Z,0.8999999761581421
2023-03-03T01:15:32.000Z,0.8999999761581421
2023-03-03T01:15:47.000Z,0.8999999761581421
2023-03-03T01:16:02.000Z,0.8999999761581421
2023-03-03T01:16:17.000Z,0.8999999761581421
2023-03-03T01:16:32.000Z,0.8999999761581421
2023-03-03T01:16:47.000Z,0.8999999761581421
2023-03-03T01:17:02.000Z,0.8999999761581421
2023-03-03T01:17:17.000Z,0.8999999761581421
2023-03-03T01:17:32.000Z,0.8999999761581421
2023-03-03T01:17:47.000Z,0.8999999761581421
2023-03-03T01:18:02.000Z,0.8999999761581421
2023-03-03T01:18:17.000Z,0.8999999761581421
2023-03-03T01:18:32.000Z,0.8999999761581421
2023-03-03T01:18:47.000Z,0.8999999761581421
2023-03-03T01:19:02.000Z,0.8999999761581421
2023-03-03T01:19:17.000Z,0.8999999761581421
2023-03-03T01:19:32.000Z,0.8999999761581421
2023-03-03T01:19:47.000Z,0.8999999761581421
2023-03-03T01:20:02.000Z,0.8999999761581421
2023-03-03T01:20:17.000Z,0.800000011920929
2023-03-03T01:20:32.000Z,0.699999988079071
2023-03-03T01:20:47.000Z,0.800000011920929
2023-03-03T01:21:02.000Z,0.800000011920929
2023-03-03T01:21:17.000Z,0.800000011920929
2023-03-03T01:21:32.000Z,0.800000011920929
2023-03-03T01:21:47.000Z,0.800000011920929
2023-03-03T01:22:02.000Z,0.800000011920929
2023-03-03T01:22:17.000Z,0.800000011920929
2023-03-03T01:22:32.000Z,0.800000011920929
2023-03-03T01:22:46.000Z,0.800000011920929
2023-03-03T01:23:02.000Z,0.800000011920929
2023-03-03T01:23:17.000Z,0.699999988079071
2023-03-03T01:23:32.000Z,0.6000000238418579
2023-03-03T01:23:47.000Z,0.6000000238418579
2023-03-03T01:24:02.000Z,0.699999988079071
2023-03-03T01:24:17.000Z,0.699999988079071
2023-03-03T01:24:32.000Z,0.800000011920929
2023-03-03T01:24:47.000Z,0.800000011920929
2023-03-03T01:25:02.000Z,0.800000011920929
2023-03-03T01:25:17.000Z,0.800000011920929
2023-03-03T01:25:32.000Z,0.800000011920929
2023-03-03T01:25:47.000Z,0.800000011920929
2023-03-03T01:26:02.000Z,0.699999988079071
2023-03-03T01:26:17.000Z,0.699999988079071
2023-03-03T01:26:32.000Z,0.699999988079071
2023-03-03T01:26:47.000Z,0.699999988079071
2023-03-03T01:27:02.000Z,0.699999988079071
2023-03-03T01:27:17.000Z,0.6000000238418579
2023-03-03T01:27:32.000Z,0.6000000238418579
2023-03-03T01:27:47.000Z,0.5
2023-03-03T01:28:02.000Z,0.5
2023-03-03T01:28:17.000Z,0.5
2023-03-03T01:28:32.000Z,0.5
2023-03-03T01:28:47.000Z,0.5
2023-03-03T01:29:02.000Z,0.4000000059604645
2023-03-03T01:29:17.000Z,0.5
2023-03-03T01:29:32.000Z,0.5
2023-03-03T01:29:47.000Z,0.4000000059604645
2023-03-03T01:30:02.000Z,0.4000000059604645
2023-03-03T01:30:16.000Z,0.5
2023-03-03T01:30:32.000Z,0.5
2023-03-03T01:30:47.000Z,0.5
2023-03-03T01:31:02.000Z,0.6000000238418579
2023-03-03T01:31:17.000Z,0.6000000238418579
2023-03-03T01:31:32.000Z,0.5
2023-03-03T01:31:47.000Z,0.6000000238418579
2023-03-03T01:32:02.000Z,0.5
2023-03-03T01:32:17.000Z,0.5
2023-03-03T01:32:32.000Z,0.4000000059604645
2023-03-03T01:32:47.000Z,0.4000000059604645
2023-03-03T01:33:02.000Z,0.5
2023-03-03T01:33:17.000Z,0.4000000059604645
2023-03-03T01:33:32.000Z,0.4000000059604645
2023-03-03T01:33:47.000Z,0.5
2023-03-03T01:34:02.000Z,0.5
2023-03-03T01:34:17.000Z,0.4000000059604645
2023-03-03T01:34:32.000Z,0.5
2023-03-03T01:34:47.000Z,0.5
2023-03-03T01:35:02.000Z,0.5
2023-03-03T01:35:17.000Z,0.5
2023-03-03T01:35:32.000Z,0.5
2023-03-03T01:35:47.000Z,0.5
2023-03-03T01:36:02.000Z,0.5
2023-03-03T01:36:17.000Z,0.5
2023-03-03T01:36:32.000Z,0.5
2023-03-03T01:36:47.000Z,0.5
2023-03-03T01:37:02.000Z,0.5
2023-03-03T01:37:17.000Z,0.5
2023-03-03T01:37:32.000Z,0.4000000059604645
2023-03-03T01:37:46.000Z,0.4000000059604645
2023-03-03T01:38:02.000Z,0.4000000059604645
2023-03-03T01:38:17.000Z,0.5
2023-03-03T01:38:32.000Z,0.5
2023-03-03T01:38:47.000Z,0.4000000059604645
2023-03-03T01:39:02.000Z,0.4000000059604645
2023-03-03T01:39:17.000Z,0.4000000059604645
2023-03-03T01:39:32.000Z,0.4000000059604645
2023-03-03T01:39:47.000Z,0.4000000059604645
2023-03-03T01:40:02.000Z,0.4000000059604645
2023-03-03T01:40:17.000Z,0.4000000059604645
2023-03-03T01:40:32.000Z,0.4000000059604645
2023-03-03T01:40:47.000Z,0.5
2023-03-03T01:41:02.000Z,0.5
2023-03-03T01:41:17.000Z,0.5
2023-03-03T01:41:32.000Z,0.5
2023-03-03T01:41:47.000Z,0.5
2023-03-03T01:42:02.000Z,0.5
2023-03-03T01:42:17.000Z,0.5
2023-03-03T01:42:32.000Z,0.5
2023-03-03T01:42:47.000Z,0.5
2023-03-03T01:43:02.000Z,0.5
2023-03-03T01:43:17.000Z,0.5
2023-03-03T01:43:32.000Z,0.5
2023-03-03T01:43:47.000Z,0.6000000238418579
2023-03-03T01:44:02.000Z,0.5
2023-03-03T01:44:17.000Z,0.5
2023-03-03T01:44:32.000Z,0.5
2023-03-03T01:44:47.000Z,0.5
2023-03-03T01:45:02.000Z,0.5
2023-03-03T01:45:16.000Z,0.5
2023-03-03T01:45:32.000Z,0.4000000059604645
2023-03-03T01:45:47.000Z,0.4000000059604645
2023-03-03T01:46:02.000Z,0.4000000059604645
2023-03-03T01:46:17.000Z,0.4000000059604645
2023-03-03T01:46:32.000Z,0.5
2023-03-03T01:46:47.000Z,0.5
2023-03-03T01:47:02.000Z,0.5
2023-03-03T01:47:17.000Z,0.5
2023-03-03T01:47:32.000Z,0.5
2023-03-03T01:47:47.000Z,0.5
2023-03-03T01:48:02.000Z,0.5
2023-03-03T01:48:17.000Z,0.5
2023-03-03T01:48:32.000Z,0.6000000238418579
2023-03-03T01:48:47.000Z,0.6000000238418579
2023-03-03T01:49:02.000Z,0.6000000238418579
2023-03-03T01:49:17.000Z,0.6000000238418579
2023-03-03T01:49:32.000Z,0.6000000238418579
2023-03-03T01:49:47.000Z,0.6000000238418579
2023-03-03T01:50:02.000Z,0.699999988079071
2023-03-03T01:50:17.000Z,0.699999988079071
2023-03-03T01:50:32.000Z,0.699999988079071
2023-03-03T01:50:47.000Z,0.699999988079071
2023-03-03T01:51:02.000Z,0.699999988079071
2023-03-03T01:51:17.000Z,0.699999988079071
2023-03-03T01:51:32.000Z,0.699999988079071
2023-03-03T01:51:47.000Z,0.699999988079071
2023-03-03T01:52:02.000Z,0.699999988079071
2023-03-03T01:52:17.000Z,0.699999988079071
2023-03-03T01:52:32.000Z,0.699999988079071
2023-03-03T01:52:46.000Z,0.699999988079071
2023-03-03T01:53:02.000Z,0.699999988079071
2023-03-03T01:53:17.000Z,0.699999988079071
2023-03-03T01:53:32.000Z,0.800000011920929
2023-03-03T01:53:47.000Z,0.800000011920929
2023-03-03T01:54:02.000Z,0.800000011920929
2023-03-03T01:54:17.000Z,0.699999988079071
2023-03-03T01:54:32.000Z,0.699999988079071
2023-03-03T01:54:47.000Z,0.6000000238418579
2023-03-03T01:55:02.000Z,0.699999988079071
2023-03-03T01:55:17.000Z,0.800000011920929
2023-03-03T01:55:32.000Z,0.800000011920929
2023-03-03T01:55:47.000Z,0.800000011920929
2023-03-03T01:56:02.000Z,0.800000011920929
2023-03-03T01:56:17.000Z,0.800000011920929
2023-03-03T01:56:32.000Z,0.699999988079071
2023-03-03T01:56:47.000Z,0.6000000238418579
2023-03-03T01:57:02.000Z,0.5
2023-03-03T01:57:17.000Z,0.6000000238418579
2023-03-03T01:57:32.000Z,0.6000000238418579
2023-03-03T01:57:47.000Z,0.6000000238418579
2023-03-03T01:58:02.000Z,0.6000000238418579
2023-03-03T01:58:17.000Z,0.6000000238418579
2023-03-03T01:58:32.000Z,0.6000000238418579
2023-03-03T01:58:47.000Z,0.699999988079071
2023-03-03T01:59:02.000Z,0.699999988079071
2023-03-03T01:59:17.000Z,0.6000000238418579
2023-03-03T01:59:32.000Z,0.6000000238418579
2023-03-03T01:59:47.000Z,0.6000000238418579
2023-03-03T02:00:02.000Z,0.699999988079071
2023-03-03T02:00:16.000Z,0.699999988079071
2023-03-03T02:00:32.000Z,0.699999988079071
2023-03-03T02:00:47.000Z,0.699999988079071
2023-03-03T02:01:02.000Z,0.800000011920929
2023-03-03T02:01:17.000Z,0.800000011920929
2023-03-03T02:01:32.000Z,0.800000011920929
2023-03-03T02:01:47.000Z,0.800000011920929
2023-03-03T02:02:02.000Z,0.699999988079071
2023-03-03T02:02:17.000Z,0.800000011920929
2023-03-03T02:02:32.000Z,0.800000011920929
2023-03-03T02:02:47.000Z,0.800000011920929
2023-03-03T02:03:02.000Z,0.699999988079071
2023-03-03T02:03:17.000Z,0.5
2023-03-03T02:03:32.000Z,0.4000000059604645
2023-03-03T02:03:47.000Z,0.4000000059604645
2023-03-03T02:04:02.000Z,0.5
2023-03-03T02:04:17.000Z,0.6000000238418579
2023-03-03T02:04:32.000Z,0.6000000238418579
2023-03-03T02:04:47.000Z,0.699999988079071
2023-03-03T02:05:02.000Z,0.699999988079071
2023-03-03T02:05:17.000Z,0.699999988079071
2023-03-03T02:05:32.000Z,0.6000000238418579
2023-03-03T02:05:47.000Z,0.699999988079071
2023-03-03T02:06:02.000Z,0.699999988079071
2023-03-03T02:06:17.000Z,0.699999988079071
2023-03-03T02:06:32.000Z,0.699999988079071
2023-03-03T02:06:47.000Z,0.800000011920929
2023-03-03T02:07:02.000Z,0.800000011920929
2023-03-03T02:07:17.000Z,0.800000011920929
2023-03-03T02:07:32.000Z,0.800000011920929
2023-03-03T02:07:47.000Z,0.800000011920929
2023-03-03T02:08:02.000Z,0.800000011920929
2023-03-03T02:08:17.000Z,0.800000011920929
2023-03-03T02:08:32.000Z,0.800000011920929
2023-03-03T02:08:47.000Z,0.800000011920929
2023-03-03T02:09:02.000Z,0.800000011920929
2023-03-03T02:09:17.000Z,0.800000011920929
2023-03-03T02:09:32.000Z,0.800000011920929
2023-03-03T02:09:47.000Z,0.800000011920929
2023-03-03T02:10:02.000Z,0.8999999761581421
2023-03-03T02:10:17.000Z,0.800000011920929
2023-03-03T02:10:32.000Z,0.800000011920929
2023-03-03T02:10:47.000Z,0.800000011920929
2023-03-03T02:11:02.000Z,0.800000011920929
2023-03-03T02:11:17.000Z,0.800000011920929
2023-03-03T02:11:32.000Z,0.800000011920929
2023-03-03T02:11:47.000Z,0.800000011920929
2023-03-03T02:12:02.000Z,0.800000011920929
2023-03-03T02:12:17.000Z,0.800000011920929
2023-03-03T02:12:32.000Z,0.800000011920929
2023-03-03T02:12:47.000Z,0.800000011920929
2023-03-03T02:13:02.000Z,0.800000011920929
2023-03-03T02:13:17.000Z,0.800000011920929
2023-03-03T02:13:32.000Z,0.800000011920929
2023-03-03T02:13:47.000Z,0.699999988079071
2023-03-03T02:14:02.000Z,0.800000011920929
2023-03-03T02:14:17.000Z,0.699999988079071
2023-03-03T02:14:32.000Z,0.800000011920929
2023-03-03T02:14:47.000Z,0.699999988079071
2023-03-03T02:15:02.000Z,0.699999988079071
2023-03-03T02:15:17.000Z,0.699999988079071
2023-03-03T02:15:32.000Z,0.699999988079071
2023-03-03T02:15:47.000Z,0.699999988079071
2023-03-03T02:16:02.000Z,0.6000000238418579
2023-03-03T02:16:17.000Z,0.6000000238418579
2023-03-03T02:16:32.000Z,0.6000000238418579
2023-03-03T02:16:47.000Z,0.5
2023-03-03T02:17:02.000Z,0.5
2023-03-03T02:17:17.000Z,0.5
2023-03-03T02:17:32.000Z,0.6000000238418579
2023-03-03T02:17:47.000Z,0.6000000238418579
2023-03-03T02:18:02.000Z,0.6000000238418579
2023-03-03T02:18:17.000Z,0.6000000238418579
2023-03-03T02:18:32.000Z,0.699999988079071
2023-03-03T02:18:47.000Z,0.699999988079071
2023-03-03T02:19:02.000Z,0.6000000238418579
2023-03-03T02:19:17.000Z,0.6000000238418579
2023-03-03T02:19:32.000Z,0.6000000238418579
2023-03-03T02:19:47.000Z,0.6000000238418579
2023-03-03T02:20:02.000Z,0.6000000238418579
2023-03-03T02:20:17.000Z,0.6000000238418579
2023-03-03T02:20:32.000Z,0.5
2023-03-03T02:20:47.000Z,0.5
2023-03-03T02:21:02.000Z,0.5
2023-03-03T02:21:17.000Z,0.6000000238418579
2023-03-03T02:21:32.000Z,0.6000000238418579
2023-03-03T02:21:47.000Z,0.6000000238418579
2023-03-03T02:22:02.000Z,0.4000000059604645
2023-03-03T02:22:17.000Z,0.4000000059604645
2023-03-03T02:22:32.000Z,0.4000000059604645
2023-03-03T02:22:47.000Z,0.4000000059604645
2023-03-03T02:23:02.000Z,0.4000000059604645
2023-03-03T02:23:17.000Z,0.4000000059604645
2023-03-03T02:23:32.000Z,0.4000000059604645
2023-03-03T02:23:47.000Z,0.4000000059604645
2023-03-03T02:24:02.000Z,0.4000000059604645
2023-03-03T02:24:17.000Z,0.4000000059604645
2023-03-03T02:24:32.000Z,0.5
2023-03-03T02:24:47.000Z,0.5
2023-03-03T02:25:02.000Z,0.4000000059604645
2023-03-03T02:25:17.000Z,0.5
2023-03-03T02:25:32.000Z,0.5
2023-03-03T02:25:47.000Z,0.4000000059604645
2023-03-03T02:26:02.000Z,0.4000000059604645
2023-03-03T02:26:17.000Z,0.4000000059604645
2023-03-03T02:26:32.000Z,0.4000000059604645
2023-03-03T02:26:47.000Z,0.5
2023-03-03T02:27:02.000Z,0.5
2023-03-03T02:27:17.000Z,0.6000000238418579
2023-03-03T02:27:32.000Z,0.6000000238418579
2023-03-03T02:27:47.000Z,0.6000000238418579
2023-03-03T02:28:02.000Z,0.6000000238418579
2023-03-03T02:28:17.000Z,0.6000000238418579
2023-03-03T02:28:32.000Z,0.6000000238418579
2023-03-03T02:28:47.000Z,0.699999988079071
2023-03-03T02:29:02.000Z,0.699999988079071